sensor_id;sensor_type;location;lat;lon;timestamp;temperature;humidity
53268;DHT22;39156;51.176;6.738;2022-09-13T00:00:04;18.70;51.40
53268;DHT22;39156;51.176;6.738;2022-09-13T00:02:31;18.70;51.60
53268;DHT22;39156;51.176;6.738;2022-09-13T00:04:56;18.70;51.50
53268;DHT22;39156;51.176;6.738;2022-09-13T00:07:22;18.70;51.60
53268;DHT22;39156;51.176;6.738;2022-09-13T00:09:48;18.70;51.70
53268;DHT22;39156;51.176;6.738;2022-09-13T00:12:14;18.60;51.90
53268;DHT22;39156;51.176;6.738;2022-09-13T00:14:39;18.60;52.00
53268;DHT22;39156;51.176;6.738;2022-09-13T00:17:05;18.60;52.00
53268;DHT22;39156;51.176;6.738;2022-09-13T00:19:31;18.50;52.00
53268;DHT22;39156;51.176;6.738;2022-09-13T00:21:56;18.50;52.00
53268;DHT22;39156;51.176;6.738;2022-09-13T00:24:22;18.50;51.90
53268;DHT22;39156;51.176;6.738;2022-09-13T00:26:48;18.60;51.90
53268;DHT22;39156;51.176;6.738;2022-09-13T00:29:13;18.60;52.10
53268;DHT22;39156;51.176;6.738;2022-09-13T00:31:39;18.50;52.00
53268;DHT22;39156;51.176;6.738;2022-09-13T00:34:04;18.50;52.30
53268;DHT22;39156;51.176;6.738;2022-09-13T00:36:30;18.50;52.50
53268;DHT22;39156;51.176;6.738;2022-09-13T00:38:56;18.60;52.40
53268;DHT22;39156;51.176;6.738;2022-09-13T00:41:22;18.50;52.50
53268;DHT22;39156;51.176;6.738;2022-09-13T00:43:48;18.50;52.40
53268;DHT22;39156;51.176;6.738;2022-09-13T00:46:24;18.50;52.60
53268;DHT22;39156;51.176;6.738;2022-09-13T00:49:00;18.50;52.30
53268;DHT22;39156;51.176;6.738;2022-09-13T00:51:30;18.50;52.50
53268;DHT22;39156;51.176;6.738;2022-09-13T00:53:55;18.50;52.50
53268;DHT22;39156;51.176;6.738;2022-09-13T00:56:25;18.50;52.60
53268;DHT22;39156;51.176;6.738;2022-09-13T00:58:58;18.50;52.60
53268;DHT22;39156;51.176;6.738;2022-09-13T01:01:27;18.50;52.80
53268;DHT22;39156;51.176;6.738;2022-09-13T01:03:55;18.50;52.70
53268;DHT22;39156;51.176;6.738;2022-09-13T01:06:21;18.50;52.70
53268;DHT22;39156;51.176;6.738;2022-09-13T01:08:50;18.50;53.00
53268;DHT22;39156;51.176;6.738;2022-09-13T01:14:19;18.40;52.70
53268;DHT22;39156;51.176;6.738;2022-09-13T01:16:46;18.40;52.70
53268;DHT22;39156;51.176;6.738;2022-09-13T01:19:12;18.40;52.90
53268;DHT22;39156;51.176;6.738;2022-09-13T01:40:59;18.20;53.20
53268;DHT22;39156;51.176;6.738;2022-09-13T01:48:58;18.20;53.40
53268;DHT22;39156;51.176;6.738;2022-09-13T01:51:47;18.10;53.70
53268;DHT22;39156;51.176;6.738;2022-09-13T01:56:54;18.10;53.90
53268;DHT22;39156;51.176;6.738;2022-09-13T01:59:35;18.10;54.20
53268;DHT22;39156;51.176;6.738;2022-09-13T02:02:10;18.10;54.30
53268;DHT22;39156;51.176;6.738;2022-09-13T02:04:46;18.10;54.10
53268;DHT22;39156;51.176;6.738;2022-09-13T02:07:16;18.00;54.00
53268;DHT22;39156;51.176;6.738;2022-09-13T02:09:46;18.00;54.10
53268;DHT22;39156;51.176;6.738;2022-09-13T02:12:19;18.00;54.40
53268;DHT22;39156;51.176;6.738;2022-09-13T02:14:49;17.90;54.40
53268;DHT22;39156;51.176;6.738;2022-09-13T02:17:23;17.90;54.60
53268;DHT22;39156;51.176;6.738;2022-09-13T02:19:51;17.90;54.50
53268;DHT22;39156;51.176;6.738;2022-09-13T02:22:21;17.90;54.40
53268;DHT22;39156;51.176;6.738;2022-09-13T02:24:51;17.90;54.40
53268;DHT22;39156;51.176;6.738;2022-09-13T02:27:21;17.80;54.50
53268;DHT22;39156;51.176;6.738;2022-09-13T02:29:51;17.90;54.40
53268;DHT22;39156;51.176;6.738;2022-09-13T02:32:23;17.90;54.30
53268;DHT22;39156;51.176;6.738;2022-09-13T02:35:05;17.90;54.40
53268;DHT22;39156;51.176;6.738;2022-09-13T02:37:35;17.80;54.50
53268;DHT22;39156;51.176;6.738;2022-09-13T02:40:03;17.80;54.30
53268;DHT22;39156;51.176;6.738;2022-09-13T02:42:36;17.90;54.10
53268;DHT22;39156;51.176;6.738;2022-09-13T02:45:08;17.80;54.50
53268;DHT22;39156;51.176;6.738;2022-09-13T02:47:58;17.80;54.50
53268;DHT22;39156;51.176;6.738;2022-09-13T02:53:22;17.80;54.40
53268;DHT22;39156;51.176;6.738;2022-09-13T02:55:52;17.80;54.40
53268;DHT22;39156;51.176;6.738;2022-09-13T02:58:32;17.90;54.60
53268;DHT22;39156;51.176;6.738;2022-09-13T03:01:03;17.80;54.80
53268;DHT22;39156;51.176;6.738;2022-09-13T03:03:29;17.90;54.80
53268;DHT22;39156;51.176;6.738;2022-09-13T03:05:55;17.90;54.50
53268;DHT22;39156;51.176;6.738;2022-09-13T03:08:21;17.90;54.70
53268;DHT22;39156;51.176;6.738;2022-09-13T03:13:28;17.90;55.00
53268;DHT22;39156;51.176;6.738;2022-09-13T03:16:36;17.90;54.90
53268;DHT22;39156;51.176;6.738;2022-09-13T03:21:57;17.90;55.00
53268;DHT22;39156;51.176;6.738;2022-09-13T03:27:27;17.90;55.10
53268;DHT22;39156;51.176;6.738;2022-09-13T03:30:08;17.90;55.10
53268;DHT22;39156;51.176;6.738;2022-09-13T03:38:04;17.80;55.60
53268;DHT22;39156;51.176;6.738;2022-09-13T03:40:37;17.80;55.40
53268;DHT22;39156;51.176;6.738;2022-09-13T03:43:17;17.90;55.60
53268;DHT22;39156;51.176;6.738;2022-09-13T03:45:49;17.90;55.50
53268;DHT22;39156;51.176;6.738;2022-09-13T03:48:17;17.90;55.70
53268;DHT22;39156;51.176;6.738;2022-09-13T03:50:44;17.90;55.50
53268;DHT22;39156;51.176;6.738;2022-09-13T03:53:11;17.90;55.70
53268;DHT22;39156;51.176;6.738;2022-09-13T03:55:40;17.90;55.80
53268;DHT22;39156;51.176;6.738;2022-09-13T03:58:08;17.90;55.30
53268;DHT22;39156;51.176;6.738;2022-09-13T04:00:36;17.90;55.80
53268;DHT22;39156;51.176;6.738;2022-09-13T04:03:02;17.90;56.10
53268;DHT22;39156;51.176;6.738;2022-09-13T04:05:28;17.80;56.20
53268;DHT22;39156;51.176;6.738;2022-09-13T04:07:54;17.90;56.00
53268;DHT22;39156;51.176;6.738;2022-09-13T04:10:19;17.80;56.20
53268;DHT22;39156;51.176;6.738;2022-09-13T04:12:45;17.90;56.40
53268;DHT22;39156;51.176;6.738;2022-09-13T04:15:11;17.90;56.50
53268;DHT22;39156;51.176;6.738;2022-09-13T04:17:37;17.80;56.30
53268;DHT22;39156;51.176;6.738;2022-09-13T04:20:02;17.90;56.70
53268;DHT22;39156;51.176;6.738;2022-09-13T04:22:30;17.90;56.50
53268;DHT22;39156;51.176;6.738;2022-09-13T04:24:55;17.90;56.40
53268;DHT22;39156;51.176;6.738;2022-09-13T04:27:21;17.90;56.60
53268;DHT22;39156;51.176;6.738;2022-09-13T04:29:47;17.90;56.30
53268;DHT22;39156;51.176;6.738;2022-09-13T04:32:12;17.90;56.20
53268;DHT22;39156;51.176;6.738;2022-09-13T04:34:38;17.90;56.40
53268;DHT22;39156;51.176;6.738;2022-09-13T04:37:03;17.90;56.30
53268;DHT22;39156;51.176;6.738;2022-09-13T04:39:29;17.90;56.40
53268;DHT22;39156;51.176;6.738;2022-09-13T04:41:55;17.90;56.60
53268;DHT22;39156;51.176;6.738;2022-09-13T04:44:21;17.90;56.60
53268;DHT22;39156;51.176;6.738;2022-09-13T04:46:48;17.90;56.60
53268;DHT22;39156;51.176;6.738;2022-09-13T04:49:15;17.90;56.70
53268;DHT22;39156;51.176;6.738;2022-09-13T04:51:41;17.90;56.70
53268;DHT22;39156;51.176;6.738;2022-09-13T04:54:08;17.90;56.70
53268;DHT22;39156;51.176;6.738;2022-09-13T04:56:34;17.90;56.90
53268;DHT22;39156;51.176;6.738;2022-09-13T04:59:00;17.90;56.80
53268;DHT22;39156;51.176;6.738;2022-09-13T05:01:26;17.90;56.90
53268;DHT22;39156;51.176;6.738;2022-09-13T05:03:51;17.80;57.10
53268;DHT22;39156;51.176;6.738;2022-09-13T05:06:18;17.80;57.40
53268;DHT22;39156;51.176;6.738;2022-09-13T05:08:47;17.80;57.80
53268;DHT22;39156;51.176;6.738;2022-09-13T05:11:19;17.80;57.50
53268;DHT22;39156;51.176;6.738;2022-09-13T05:13:49;17.80;56.80
53268;DHT22;39156;51.176;6.738;2022-09-13T05:16:17;17.80;56.60
53268;DHT22;39156;51.176;6.738;2022-09-13T05:18:43;17.70;56.50
53268;DHT22;39156;51.176;6.738;2022-09-13T05:21:08;17.70;56.70
53268;DHT22;39156;51.176;6.738;2022-09-13T05:23:34;17.70;56.70
53268;DHT22;39156;51.176;6.738;2022-09-13T05:26:00;17.70;56.90
53268;DHT22;39156;51.176;6.738;2022-09-13T05:28:28;17.70;57.50
53268;DHT22;39156;51.176;6.738;2022-09-13T05:30:58;17.70;57.50
53268;DHT22;39156;51.176;6.738;2022-09-13T05:33:30;17.60;57.10
53268;DHT22;39156;51.176;6.738;2022-09-13T05:35:58;17.60;57.00
53268;DHT22;39156;51.176;6.738;2022-09-13T05:38:23;17.60;56.90
53268;DHT22;39156;51.176;6.738;2022-09-13T05:40:53;17.60;56.90
53268;DHT22;39156;51.176;6.738;2022-09-13T05:43:22;17.60;56.90
53268;DHT22;39156;51.176;6.738;2022-09-13T05:45:48;17.60;56.80
53268;DHT22;39156;51.176;6.738;2022-09-13T05:48:14;17.60;57.00
53268;DHT22;39156;51.176;6.738;2022-09-13T05:50:40;17.60;57.80
53268;DHT22;39156;51.176;6.738;2022-09-13T05:53:05;17.70;57.90
53268;DHT22;39156;51.176;6.738;2022-09-13T05:55:31;17.60;57.60
53268;DHT22;39156;51.176;6.738;2022-09-13T05:57:58;17.60;57.40
53268;DHT22;39156;51.176;6.738;2022-09-13T06:00:25;17.60;57.30
53268;DHT22;39156;51.176;6.738;2022-09-13T06:02:51;17.70;57.30
53268;DHT22;39156;51.176;6.738;2022-09-13T06:05:17;17.70;57.30
53268;DHT22;39156;51.176;6.738;2022-09-13T06:07:42;17.70;57.60
53268;DHT22;39156;51.176;6.738;2022-09-13T06:10:08;17.70;57.90
53268;DHT22;39156;51.176;6.738;2022-09-13T06:12:35;17.70;57.80
53268;DHT22;39156;51.176;6.738;2022-09-13T06:15:00;17.80;57.60
53268;DHT22;39156;51.176;6.738;2022-09-13T06:17:26;17.80;57.80
53268;DHT22;39156;51.176;6.738;2022-09-13T06:19:52;17.80;58.20
53268;DHT22;39156;51.176;6.738;2022-09-13T06:22:17;17.80;58.10
53268;DHT22;39156;51.176;6.738;2022-09-13T06:24:43;17.80;58.00
53268;DHT22;39156;51.176;6.738;2022-09-13T06:27:09;17.80;57.60
53268;DHT22;39156;51.176;6.738;2022-09-13T06:29:35;17.90;58.00
53268;DHT22;39156;51.176;6.738;2022-09-13T06:32:01;17.90;57.60
53268;DHT22;39156;51.176;6.738;2022-09-13T06:34:28;17.90;57.60
53268;DHT22;39156;51.176;6.738;2022-09-13T06:36:53;18.00;57.40
53268;DHT22;39156;51.176;6.738;2022-09-13T06:39:19;18.00;57.40
53268;DHT22;39156;51.176;6.738;2022-09-13T06:41:44;18.00;57.10
53268;DHT22;39156;51.176;6.738;2022-09-13T06:44:10;18.00;57.30
53268;DHT22;39156;51.176;6.738;2022-09-13T06:46:36;18.10;57.00
53268;DHT22;39156;51.176;6.738;2022-09-13T06:49:03;18.20;57.00
53268;DHT22;39156;51.176;6.738;2022-09-13T06:51:29;18.20;57.10
53268;DHT22;39156;51.176;6.738;2022-09-13T06:53:56;18.30;57.00
53268;DHT22;39156;51.176;6.738;2022-09-13T06:56:30;18.30;57.10
53268;DHT22;39156;51.176;6.738;2022-09-13T06:59:00;18.40;57.40
53268;DHT22;39156;51.176;6.738;2022-09-13T07:01:32;18.40;57.10
53268;DHT22;39156;51.176;6.738;2022-09-13T07:04:03;18.50;57.00
53268;DHT22;39156;51.176;6.738;2022-09-13T07:06:34;18.50;57.00
53268;DHT22;39156;51.176;6.738;2022-09-13T07:09:01;18.50;56.90
53268;DHT22;39156;51.176;6.738;2022-09-13T07:11:28;18.60;57.00
53268;DHT22;39156;51.176;6.738;2022-09-13T07:13:56;18.70;56.90
53268;DHT22;39156;51.176;6.738;2022-09-13T07:16:23;18.70;57.00
53268;DHT22;39156;51.176;6.738;2022-09-13T07:18:54;18.80;57.10
53268;DHT22;39156;51.176;6.738;2022-09-13T07:21:25;18.90;57.20
53268;DHT22;39156;51.176;6.738;2022-09-13T07:23:52;18.90;57.00
53268;DHT22;39156;51.176;6.738;2022-09-13T07:26:19;19.00;56.90
53268;DHT22;39156;51.176;6.738;2022-09-13T07:28:46;19.00;56.80
53268;DHT22;39156;51.176;6.738;2022-09-13T07:31:20;19.10;56.40
53268;DHT22;39156;51.176;6.738;2022-09-13T07:33:47;19.10;56.50
53268;DHT22;39156;51.176;6.738;2022-09-13T07:36:13;19.20;56.60
53268;DHT22;39156;51.176;6.738;2022-09-13T07:38:40;19.30;56.50
53268;DHT22;39156;51.176;6.738;2022-09-13T07:41:09;19.30;56.40
53268;DHT22;39156;51.176;6.738;2022-09-13T07:43:36;19.40;56.40
53268;DHT22;39156;51.176;6.738;2022-09-13T07:46:12;19.50;56.40
53268;DHT22;39156;51.176;6.738;2022-09-13T07:48:40;19.60;56.40
53268;DHT22;39156;51.176;6.738;2022-09-13T07:53:34;19.80;56.40
53268;DHT22;39156;51.176;6.738;2022-09-13T07:56:01;19.90;56.20
53268;DHT22;39156;51.176;6.738;2022-09-13T07:58:31;20.00;56.20
53268;DHT22;39156;51.176;6.738;2022-09-13T08:01:08;20.10;56.10
53268;DHT22;39156;51.176;6.738;2022-09-13T08:03:36;20.20;56.20
53268;DHT22;39156;51.176;6.738;2022-09-13T08:06:02;20.30;56.10
53268;DHT22;39156;51.176;6.738;2022-09-13T08:08:28;20.50;56.10
53268;DHT22;39156;51.176;6.738;2022-09-13T08:10:54;20.60;56.10
53268;DHT22;39156;51.176;6.738;2022-09-13T08:13:20;20.80;56.10
53268;DHT22;39156;51.176;6.738;2022-09-13T08:15:45;21.00;56.20
53268;DHT22;39156;51.176;6.738;2022-09-13T08:18:11;21.20;56.20
53268;DHT22;39156;51.176;6.738;2022-09-13T08:20:37;21.50;56.30
53268;DHT22;39156;51.176;6.738;2022-09-13T08:23:04;21.80;56.80
53268;DHT22;39156;51.176;6.738;2022-09-13T08:25:33;22.20;57.00
53268;DHT22;39156;51.176;6.738;2022-09-13T08:28:00;22.50;56.40
53268;DHT22;39156;51.176;6.738;2022-09-13T08:30:26;23.00;57.00
53268;DHT22;39156;51.176;6.738;2022-09-13T08:32:58;23.30;57.20
53268;DHT22;39156;51.176;6.738;2022-09-13T08:35:25;23.80;57.60
53268;DHT22;39156;51.176;6.738;2022-09-13T08:37:51;24.10;57.70
53268;DHT22;39156;51.176;6.738;2022-09-13T08:40:16;24.60;57.50
53268;DHT22;39156;51.176;6.738;2022-09-13T08:45:23;25.40;58.30
53268;DHT22;39156;51.176;6.738;2022-09-13T08:50:26;26.20;57.70
53268;DHT22;39156;51.176;6.738;2022-09-13T08:55:50;27.10;56.10
53268;DHT22;39156;51.176;6.738;2022-09-13T09:06:51;28.60;55.70
53268;DHT22;39156;51.176;6.738;2022-09-13T09:09:19;28.80;53.00
53268;DHT22;39156;51.176;6.738;2022-09-13T09:11:50;29.10;53.80
53268;DHT22;39156;51.176;6.738;2022-09-13T09:14:35;29.30;53.40
53268;DHT22;39156;51.176;6.738;2022-09-13T09:17:04;29.50;54.00
53268;DHT22;39156;51.176;6.738;2022-09-13T09:19:45;29.70;54.00
53268;DHT22;39156;51.176;6.738;2022-09-13T09:22:17;29.90;53.60
53268;DHT22;39156;51.176;6.738;2022-09-13T09:24:55;30.10;53.40
53268;DHT22;39156;51.176;6.738;2022-09-13T09:27:21;30.30;52.20
53268;DHT22;39156;51.176;6.738;2022-09-13T09:29:48;30.50;52.50
53268;DHT22;39156;51.176;6.738;2022-09-13T09:40:49;31.20;52.00
53268;DHT22;39156;51.176;6.738;2022-09-13T09:43:19;31.20;52.50
53268;DHT22;39156;51.176;6.738;2022-09-13T09:45:49;31.30;50.30
53268;DHT22;39156;51.176;6.738;2022-09-13T09:48:18;31.50;49.70
53268;DHT22;39156;51.176;6.738;2022-09-13T09:50:46;31.50;50.10
53268;DHT22;39156;51.176;6.738;2022-09-13T09:53:22;31.60;48.90
53268;DHT22;39156;51.176;6.738;2022-09-13T09:58:41;31.70;50.30
53268;DHT22;39156;51.176;6.738;2022-09-13T10:03:51;32.00;51.70
53268;DHT22;39156;51.176;6.738;2022-09-13T10:06:27;32.00;49.90
53268;DHT22;39156;51.176;6.738;2022-09-13T10:08:55;32.10;47.80
53268;DHT22;39156;51.176;6.738;2022-09-13T10:14:30;32.10;49.20
53268;DHT22;39156;51.176;6.738;2022-09-13T10:17:08;32.20;49.50
53268;DHT22;39156;51.176;6.738;2022-09-13T10:19:56;32.30;48.30
53268;DHT22;39156;51.176;6.738;2022-09-13T10:22:27;32.40;48.20
53268;DHT22;39156;51.176;6.738;2022-09-13T10:24:53;32.60;48.20
53268;DHT22;39156;51.176;6.738;2022-09-13T10:29:59;32.70;45.10
53268;DHT22;39156;51.176;6.738;2022-09-13T10:32:28;32.70;45.90
53268;DHT22;39156;51.176;6.738;2022-09-13T10:34:54;32.60;43.90
53268;DHT22;39156;51.176;6.738;2022-09-13T10:37:22;32.50;45.50
53268;DHT22;39156;51.176;6.738;2022-09-13T10:39:52;32.30;45.10
53268;DHT22;39156;51.176;6.738;2022-09-13T10:42:19;32.10;43.70
53268;DHT22;39156;51.176;6.738;2022-09-13T10:44:54;31.90;44.40
53268;DHT22;39156;51.176;6.738;2022-09-13T10:52:52;31.20;44.70
53268;DHT22;39156;51.176;6.738;2022-09-13T10:55:32;30.90;45.00
53268;DHT22;39156;51.176;6.738;2022-09-13T11:19:45;29.10;44.10
53268;DHT22;39156;51.176;6.738;2022-09-13T11:22:21;29.00;44.00
53268;DHT22;39156;51.176;6.738;2022-09-13T11:27:43;28.80;44.10
53268;DHT22;39156;51.176;6.738;2022-09-13T11:30:16;28.70;44.40
53268;DHT22;39156;51.176;6.738;2022-09-13T11:46:44;28.60;44.70
53268;DHT22;39156;51.176;6.738;2022-09-13T11:49:32;28.60;45.40
53268;DHT22;39156;51.176;6.738;2022-09-13T11:55:01;28.60;44.70
53268;DHT22;39156;51.176;6.738;2022-09-13T11:57:54;28.60;45.00
53268;DHT22;39156;51.176;6.738;2022-09-13T12:00:42;28.60;45.20
53268;DHT22;39156;51.176;6.738;2022-09-13T12:05:47;28.70;44.40
53268;DHT22;39156;51.176;6.738;2022-09-13T12:08:20;28.60;44.40
53268;DHT22;39156;51.176;6.738;2022-09-13T12:10:53;28.70;44.90
53268;DHT22;39156;51.176;6.738;2022-09-13T12:13:21;28.70;44.40
53268;DHT22;39156;51.176;6.738;2022-09-13T12:15:51;28.70;44.10
53268;DHT22;39156;51.176;6.738;2022-09-13T12:18:19;28.70;44.50
53268;DHT22;39156;51.176;6.738;2022-09-13T12:20:54;28.80;44.90
53268;DHT22;39156;51.176;6.738;2022-09-13T12:23:29;28.70;45.30
53268;DHT22;39156;51.176;6.738;2022-09-13T12:26:01;28.80;44.10
53268;DHT22;39156;51.176;6.738;2022-09-13T12:28:34;28.80;44.40
53268;DHT22;39156;51.176;6.738;2022-09-13T12:31:04;28.80;44.30
53268;DHT22;39156;51.176;6.738;2022-09-13T12:33:37;28.80;43.90
53268;DHT22;39156;51.176;6.738;2022-09-13T12:41:34;28.60;45.00
53268;DHT22;39156;51.176;6.738;2022-09-13T12:44:12;28.50;44.50
53268;DHT22;39156;51.176;6.738;2022-09-13T12:49:40;28.40;44.20
53268;DHT22;39156;51.176;6.738;2022-09-13T12:52:15;28.30;44.10
53268;DHT22;39156;51.176;6.738;2022-09-13T13:00:25;28.20;44.50
53268;DHT22;39156;51.176;6.738;2022-09-13T13:02:59;28.10;44.50
53268;DHT22;39156;51.176;6.738;2022-09-13T13:08:01;28.10;45.10
53268;DHT22;39156;51.176;6.738;2022-09-13T13:10:32;28.10;44.90
53268;DHT22;39156;51.176;6.738;2022-09-13T13:13:19;28.00;44.20
53268;DHT22;39156;51.176;6.738;2022-09-13T13:18:22;27.90;44.80
53268;DHT22;39156;51.176;6.738;2022-09-13T13:31:55;27.80;44.10
53268;DHT22;39156;51.176;6.738;2022-09-13T13:36:24;27.80;44.30
53268;DHT22;39156;51.176;6.738;2022-09-13T13:38:52;27.80;44.30
53268;DHT22;39156;51.176;6.738;2022-09-13T13:46:42;27.80;44.70
53268;DHT22;39156;51.176;6.738;2022-09-13T14:08:19;27.80;44.50
53268;DHT22;39156;51.176;6.738;2022-09-13T14:16:32;27.80;44.70
53268;DHT22;39156;51.176;6.738;2022-09-13T14:19:08;27.80;44.50
53268;DHT22;39156;51.176;6.738;2022-09-13T14:21:42;27.80;44.90
53268;DHT22;39156;51.176;6.738;2022-09-13T14:24:16;27.80;44.70
53268;DHT22;39156;51.176;6.738;2022-09-13T14:26:47;27.80;44.70
53268;DHT22;39156;51.176;6.738;2022-09-13T14:29:17;27.80;44.70
53268;DHT22;39156;51.176;6.738;2022-09-13T14:31:44;27.90;44.60
53268;DHT22;39156;51.176;6.738;2022-09-13T14:34:21;27.80;44.60
53268;DHT22;39156;51.176;6.738;2022-09-13T14:36:54;27.90;44.40
53268;DHT22;39156;51.176;6.738;2022-09-13T14:39:21;27.80;44.60
53268;DHT22;39156;51.176;6.738;2022-09-13T14:41:47;27.80;44.80
53268;DHT22;39156;51.176;6.738;2022-09-13T14:44:24;27.80;44.70
53268;DHT22;39156;51.176;6.738;2022-09-13T14:46:52;27.70;44.60
53268;DHT22;39156;51.176;6.738;2022-09-13T14:49:30;27.70;44.70
53268;DHT22;39156;51.176;6.738;2022-09-13T14:52:01;27.80;44.90
53268;DHT22;39156;51.176;6.738;2022-09-13T14:54:37;27.80;44.90
53268;DHT22;39156;51.176;6.738;2022-09-13T14:57:06;27.90;45.00
53268;DHT22;39156;51.176;6.738;2022-09-13T14:59:45;27.90;44.90
53268;DHT22;39156;51.176;6.738;2022-09-13T15:02:22;27.90;45.00
53268;DHT22;39156;51.176;6.738;2022-09-13T15:04:54;27.90;44.70
53268;DHT22;39156;51.176;6.738;2022-09-13T15:09:48;28.00;44.90
53268;DHT22;39156;51.176;6.738;2022-09-13T15:12:22;27.90;44.80
53268;DHT22;39156;51.176;6.738;2022-09-13T15:15:12;28.00;44.80
53268;DHT22;39156;51.176;6.738;2022-09-13T15:20:19;28.00;45.40
53268;DHT22;39156;51.176;6.738;2022-09-13T15:22:46;27.90;44.70
53268;DHT22;39156;51.176;6.738;2022-09-13T15:25:15;27.90;45.20
53268;DHT22;39156;51.176;6.738;2022-09-13T15:27:51;27.80;45.80
53268;DHT22;39156;51.176;6.738;2022-09-13T15:30:19;27.60;44.80
53268;DHT22;39156;51.176;6.738;2022-09-13T15:32:46;27.50;44.60
53268;DHT22;39156;51.176;6.738;2022-09-13T15:35:16;27.50;45.10
53268;DHT22;39156;51.176;6.738;2022-09-13T15:37:42;27.40;45.00
53268;DHT22;39156;51.176;6.738;2022-09-13T15:40:15;27.30;44.90
53268;DHT22;39156;51.176;6.738;2022-09-13T15:42:46;27.20;44.80
53268;DHT22;39156;51.176;6.738;2022-09-13T15:45:17;27.10;44.90
53268;DHT22;39156;51.176;6.738;2022-09-13T15:47:45;27.10;45.00
53268;DHT22;39156;51.176;6.738;2022-09-13T15:50:25;27.00;45.00
53268;DHT22;39156;51.176;6.738;2022-09-13T15:52:55;27.00;45.00
53268;DHT22;39156;51.176;6.738;2022-09-13T15:55:21;27.00;45.10
53268;DHT22;39156;51.176;6.738;2022-09-13T15:57:47;26.90;45.10
53268;DHT22;39156;51.176;6.738;2022-09-13T16:00:14;26.90;45.20
53268;DHT22;39156;51.176;6.738;2022-09-13T16:02:41;26.80;45.20
53268;DHT22;39156;51.176;6.738;2022-09-13T16:05:06;26.80;45.20
53268;DHT22;39156;51.176;6.738;2022-09-13T16:07:33;26.80;45.30
53268;DHT22;39156;51.176;6.738;2022-09-13T16:09:58;26.70;45.30
53268;DHT22;39156;51.176;6.738;2022-09-13T16:12:25;26.70;45.30
53268;DHT22;39156;51.176;6.738;2022-09-13T16:14:51;26.70;45.30
53268;DHT22;39156;51.176;6.738;2022-09-13T16:17:22;26.60;45.40
53268;DHT22;39156;51.176;6.738;2022-09-13T16:19:49;26.50;45.40
53268;DHT22;39156;51.176;6.738;2022-09-13T16:22:15;26.50;45.40
53268;DHT22;39156;51.176;6.738;2022-09-13T16:24:40;26.50;45.50
53268;DHT22;39156;51.176;6.738;2022-09-13T16:27:06;26.40;45.50
53268;DHT22;39156;51.176;6.738;2022-09-13T16:29:32;26.40;45.50
53268;DHT22;39156;51.176;6.738;2022-09-13T16:31:57;26.40;45.60
53268;DHT22;39156;51.176;6.738;2022-09-13T16:34:25;26.30;45.50
53268;DHT22;39156;51.176;6.738;2022-09-13T16:36:51;26.30;45.60
53268;DHT22;39156;51.176;6.738;2022-09-13T16:39:17;26.20;45.70
53268;DHT22;39156;51.176;6.738;2022-09-13T16:41:43;26.20;45.70
53268;DHT22;39156;51.176;6.738;2022-09-13T16:44:09;26.20;45.80
53268;DHT22;39156;51.176;6.738;2022-09-13T16:46:34;26.20;45.90
53268;DHT22;39156;51.176;6.738;2022-09-13T16:49:00;26.10;46.20
53268;DHT22;39156;51.176;6.738;2022-09-13T16:51:26;26.10;46.40
53268;DHT22;39156;51.176;6.738;2022-09-13T16:53:52;26.00;46.50
53268;DHT22;39156;51.176;6.738;2022-09-13T16:56:19;26.00;46.80
53268;DHT22;39156;51.176;6.738;2022-09-13T16:58:47;25.90;46.90
53268;DHT22;39156;51.176;6.738;2022-09-13T17:01:14;25.80;47.10
53268;DHT22;39156;51.176;6.738;2022-09-13T17:03:41;25.80;46.70
53268;DHT22;39156;51.176;6.738;2022-09-13T17:06:07;25.70;47.00
53268;DHT22;39156;51.176;6.738;2022-09-13T17:08:36;25.60;47.20
53268;DHT22;39156;51.176;6.738;2022-09-13T17:11:06;25.60;47.60
53268;DHT22;39156;51.176;6.738;2022-09-13T17:13:33;25.50;47.70
53268;DHT22;39156;51.176;6.738;2022-09-13T17:15:59;25.40;47.90
53268;DHT22;39156;51.176;6.738;2022-09-13T17:18:25;25.30;48.10
53268;DHT22;39156;51.176;6.738;2022-09-13T17:20:51;25.20;48.30
53268;DHT22;39156;51.176;6.738;2022-09-13T17:23:17;25.20;48.50
53268;DHT22;39156;51.176;6.738;2022-09-13T17:25:43;25.10;48.50
53268;DHT22;39156;51.176;6.738;2022-09-13T17:28:14;25.10;48.60
53268;DHT22;39156;51.176;6.738;2022-09-13T17:30:41;25.00;48.50
53268;DHT22;39156;51.176;6.738;2022-09-13T17:33:07;25.00;48.60
53268;DHT22;39156;51.176;6.738;2022-09-13T17:35:34;24.90;48.60
53268;DHT22;39156;51.176;6.738;2022-09-13T17:38:00;24.80;48.60
53268;DHT22;39156;51.176;6.738;2022-09-13T17:40:27;24.80;48.70
53268;DHT22;39156;51.176;6.738;2022-09-13T17:42:53;24.70;48.80
53268;DHT22;39156;51.176;6.738;2022-09-13T17:45:20;24.70;48.90
53268;DHT22;39156;51.176;6.738;2022-09-13T17:47:46;24.60;49.00
53268;DHT22;39156;51.176;6.738;2022-09-13T17:50:12;24.50;49.00
53268;DHT22;39156;51.176;6.738;2022-09-13T17:52:37;24.50;49.10
53268;DHT22;39156;51.176;6.738;2022-09-13T17:55:03;24.50;49.30
53268;DHT22;39156;51.176;6.738;2022-09-13T17:57:29;24.40;49.20
53268;DHT22;39156;51.176;6.738;2022-09-13T17:59:55;24.40;49.40
53268;DHT22;39156;51.176;6.738;2022-09-13T18:02:21;24.30;49.50
53268;DHT22;39156;51.176;6.738;2022-09-13T18:04:49;24.30;49.60
53268;DHT22;39156;51.176;6.738;2022-09-13T18:07:15;24.20;49.80
53268;DHT22;39156;51.176;6.738;2022-09-13T18:09:41;24.20;49.80
53268;DHT22;39156;51.176;6.738;2022-09-13T18:12:07;24.10;49.80
53268;DHT22;39156;51.176;6.738;2022-09-13T18:14:33;24.10;50.00
53268;DHT22;39156;51.176;6.738;2022-09-13T18:16:58;24.10;50.30
53268;DHT22;39156;51.176;6.738;2022-09-13T18:19:24;24.00;50.30
53268;DHT22;39156;51.176;6.738;2022-09-13T18:21:50;24.00;50.50
53268;DHT22;39156;51.176;6.738;2022-09-13T18:24:15;23.90;50.60
53268;DHT22;39156;51.176;6.738;2022-09-13T18:26:41;23.90;50.70
53268;DHT22;39156;51.176;6.738;2022-09-13T18:29:12;23.90;50.80
53268;DHT22;39156;51.176;6.738;2022-09-13T18:31:38;23.80;51.10
53268;DHT22;39156;51.176;6.738;2022-09-13T18:34:05;23.70;51.20
53268;DHT22;39156;51.176;6.738;2022-09-13T18:36:33;23.60;51.00
53268;DHT22;39156;51.176;6.738;2022-09-13T18:39:00;23.60;51.00
53268;DHT22;39156;51.176;6.738;2022-09-13T18:41:35;23.50;51.00
53268;DHT22;39156;51.176;6.738;2022-09-13T18:44:02;23.50;51.20
53268;DHT22;39156;51.176;6.738;2022-09-13T18:46:31;23.40;51.20
53268;DHT22;39156;51.176;6.738;2022-09-13T18:48:58;23.30;51.10
53268;DHT22;39156;51.176;6.738;2022-09-13T18:53:54;23.20;51.60
53268;DHT22;39156;51.176;6.738;2022-09-13T18:56:20;23.20;51.80
53268;DHT22;39156;51.176;6.738;2022-09-13T18:58:50;23.10;51.80
53268;DHT22;39156;51.176;6.738;2022-09-13T19:03:51;23.00;52.10
53268;DHT22;39156;51.176;6.738;2022-09-13T19:06:21;22.90;52.30
53268;DHT22;39156;51.176;6.738;2022-09-13T19:08:48;22.90;52.40